Time;durP1;ratioP1;P1;durP2;ratioP2;P2;SDS_P1;SDS_P2;PMS_P1;PMS_P2;Temp;Humidity;BMP_temperature;BMP_pressure;BME280_temperature;BME280_humidity;BME280_pressure;Samples;Min_cycle;Max_cycle;Signal;HPM_P1;HPM_P2
2022/11/09 08:44:17;;;;;;;;;;;;;;;;;;;;;
2022/11/09 08:46:45;;;;;;;;;7.00;6.00;;;;;13.84;72.63;100762.47;4620540;30;72488;-80
2022/11/09 08:49:15;;;;;;;;;2.00;2.00;;;;;14.00;72.47;100794.84;4657824;30;45585;-80
2022/11/09 08:55:21;;;;;;;;;1.33;1.33;;;;;14.16;72.61;100798.13;4713049;29;45346;-81
2022/11/09 08:57:56;;;;;;;;;3.00;3.00;;;;;14.17;72.10;100794.59;4739507;29;45608;-79
2022/11/09 09:00:25;;;;;;;;;4.00;3.00;;;;;13.98;71.95;100756.97;4873964;29;47612;-80
2022/11/09 09:03:01;;;;;;;;;3.00;1.33;;;;;14.22;72.15;100797.13;4904664;28;45403;-79
2022/11/09 09:05:32;;;;;;;;;2.33;2.33;;;;;14.24;71.97;100797.97;4893370;29;45512;-79
2022/11/09 09:07:59;;;;;;;;;3.00;3.00;;;;;14.36;71.96;100818.97;4890190;29;45873;-77
2022/11/09 09:10:28;;;;;;;;;5.67;3.00;;;;;14.31;71.77;100799.63;4903482;28;45301;-80
2022/11/09 09:12:54;;;;;;;;;3.67;2.67;;;;;14.50;71.88;100827.50;4884942;28;45861;-79
2022/11/09 09:15:20;;;;;;;;;2.67;2.00;;;;;14.46;71.81;100803.75;4891602;28;45483;-79
2022/11/09 09:18:08;;;;;;;;;5.00;4.67;;;;;14.54;71.50;100802.75;4885634;29;45701;-80
2022/11/09 09:20:41;;;;;;;;;3.00;2.67;;;;;14.80;71.42;100824.34;4884866;29;47268;-79
2022/11/09 09:23:07;;;;;;;;;4.33;3.00;;;;;14.67;71.15;100786.59;4884742;29;45907;-80
2022/11/09 09:25:47;;;;;;;;;;;;;;;;;;;;;
2022/11/09 09:31:13;;;;;;;;;3.00;2.00;;;;;14.95;70.03;100818.75;4892853;28;46132;-80
2022/11/09 09:33:46;;;;;;;;;2.67;1.00;;;;;14.99;70.09;100817.75;4892254;28;45438;-80
2022/11/09 09:36:34;;;;;;;;;2.00;2.00;;;;;14.99;69.89;100820.41;4880237;29;45392;-79
2022/11/09 09:56:15;;;;;;;;;2.67;2.00;;;;;15.54;67.70;100828.97;4890179;29;45473;-81
2022/11/09 10:44:22;;;;;;;;;6.00;3.00;;;;;17.56;62.54;100931.81;4900100;26;45482;-82
2022/11/09 10:47:51;;;;;;;;;;;;;;;;;;;;;
2022/11/09 10:51:09;;;;;;;;;;;;;;;;;;;;;
2022/11/09 10:53:37;;;;;;;;;3.00;3.00;;;;;18.45;59.43;100927.25;4909978;28;74010;-78
2022/11/09 10:56:18;;;;;;;;;6.00;0.33;;;;;18.28;58.64;100938.47;4903429;28;45472;-80
2022/11/09 10:58:53;;;;;;;;;2.00;2.00;;;;;17.96;58.71;100912.88;4905396;29;45241;-78
2022/11/09 11:01:23;;;;;;;;;5.00;4.00;;;;;17.69;58.59;100922.53;4904758;29;45306;-78
2022/11/09 11:03:50;;;;;;;;;2.00;1.00;;;;;17.52;59.24;100927.50;4904575;29;46312;-79
2022/11/09 11:06:22;;;;;;;;;5.67;3.00;;;;;18.02;60.22;100946.44;4875491;29;45256;-78
2022/11/09 11:08:56;;;;;;;;;2.00;2.00;;;;;18.60;59.11;100930.31;4909311;28;45463;-79
2022/11/09 11:11:28;;;;;;;;;2.00;1.00;;;;;19.82;57.88;100933.91;4905254;29;45453;-78
2022/11/09 11:14:33;;;;;;;;;1.00;1.00;;;;;21.32;56.10;100931.22;4904605;29;46534;-79
2022/11/09 11:16:58;;;;;;;;;2.67;2.00;;;;;22.59;54.44;100911.72;4814007;29;45404;-78
2022/11/09 11:19:44;;;;;;;;;1.33;0.33;;;;;22.88;51.66;100917.38;4828024;29;45456;-79
2022/11/09 11:22:10;;;;;;;;;2.33;2.33;;;;;22.19;50.31;100931.66;4862330;29;45528;-80
2022/11/09 11:24:41;;;;;;;;;1.33;0.33;;;;;21.71;50.68;100930.34;4902555;29;47093;-78
2022/11/09 11:27:23;;;;;;;;;2.00;2.00;;;;;21.76;50.46;100926.50;4884519;29;45345;-79
2022/11/09 11:30:18;;;;;;;;;2.67;2.67;;;;;21.28;50.48;100927.81;4893338;29;45485;-79
2022/11/09 11:32:45;;;;;;;;;2.00;1.67;;;;;21.05;50.69;100931.50;4878053;29;45514;-78
2022/11/09 11:35:38;;;;;;;;;2.00;2.00;;;;;20.51;50.21;100930.25;4871485;29;47942;-80
2022/11/09 11:38:38;;;;;;;;;;;;;;;;;;;;;
2022/11/09 11:41:44;;;;;;;;;2.00;2.00;;;;;18.95;51.96;100934.44;4904763;28;67888;-78
2022/11/09 11:44:17;;;;;;;;;2.00;2.00;;;;;18.60;53.15;100938.31;4903650;29;45911;-81
2022/11/09 11:47:00;;;;;;;;;1.00;1.00;;;;;18.41;53.80;100940.72;4904182;29;45405;-80
2022/11/09 11:49:39;;;;;;;;;3.00;3.00;;;;;18.27;54.37;100933.19;4888296;29;45298;-80
2022/11/09 11:52:32;;;;;;;;;1.00;1.00;;;;;18.29;54.58;100926.03;4887043;29;45551;-79
2022/11/09 11:58:32;;;;;;;;;;;;;;;;;;;;;
2022/11/09 12:01:43;;;;;;;;;3.00;3.00;;;;;18.81;54.49;100944.75;4902321;28;72944;-79
2022/11/09 12:08:32;;;;;;;;;2.00;2.00;;;;;18.94;53.59;100930.91;4900792;28;45514;-79
2022/11/09 12:28:05;;;;;;;;;2.33;2.33;;;;;19.53;51.76;100950.16;4753817;29;45387;-79
2022/11/09 16:17:43;;;;;;;;;2.50;2.00;;;;;16.28;50.33;101169.03;5961312;23;47191;-79
2022/11/09 16:30:06;;;;;;;;;;;;;;;;;;;;;
2022/11/09 16:32:38;;;;;;;;;2.33;2.33;;;;;15.74;51.63;101178.91;4896904;28;74445;-81
2022/11/09 16:35:45;;;;;;;;;;;;;;;;;;;;;
2022/11/09 16:38:14;;;;;;;;;3.00;3.00;;;;;15.59;52.10;101188.00;4875152;29;68904;-80
2022/11/09 16:51:37;;;;;;;;;3.00;3.00;;;;;15.36;52.63;101229.03;4788202;29;45701;-80
